sensor_id;sensor_type;location;lat;lon;timestamp;pressure;altitude;pressure_sealevel;temperature;humidity
60642;BME280;46837;52.446;-1.930;2023-07-24T00:00:09;99015.39;;;16.31;78.93
60642;BME280;46837;52.446;-1.930;2023-07-24T00:01:09;99015.38;;;16.30;78.71
60642;BME280;46837;52.446;-1.930;2023-07-24T00:02:09;99014.78;;;16.27;78.76
60642;BME280;46837;52.446;-1.930;2023-07-24T00:03:09;99017.23;;;16.23;78.97
60642;BME280;46837;52.446;-1.930;2023-07-24T00:04:09;99015.39;;;16.13;79.00
60642;BME280;46837;52.446;-1.930;2023-07-24T00:05:09;99013.01;;;16.07;79.37
60642;BME280;46837;52.446;-1.930;2023-07-24T00:06:09;99012.19;;;16.02;79.29
60642;BME280;46837;52.446;-1.930;2023-07-24T00:07:09;99013.29;;;16.05;79.47
60642;BME280;46837;52.446;-1.930;2023-07-24T00:08:09;99013.32;;;16.06;79.50
60642;BME280;46837;52.446;-1.930;2023-07-24T00:09:09;99014.90;;;16.05;79.31
60642;BME280;46837;52.446;-1.930;2023-07-24T00:10:09;99006.22;;;16.00;79.55
60642;BME280;46837;52.446;-1.930;2023-07-24T00:11:09;99013.89;;;15.95;79.74
60642;BME280;46837;52.446;-1.930;2023-07-24T00:12:09;99011.66;;;15.93;79.80
60642;BME280;46837;52.446;-1.930;2023-07-24T00:13:09;99011.11;;;15.97;79.50
60642;BME280;46837;52.446;-1.930;2023-07-24T00:14:09;99015.36;;;15.94;79.54
60642;BME280;46837;52.446;-1.930;2023-07-24T00:15:09;99013.79;;;15.95;79.51
60642;BME280;46837;52.446;-1.930;2023-07-24T00:16:10;99011.70;;;15.89;79.50
60642;BME280;46837;52.446;-1.930;2023-07-24T00:17:09;99016.28;;;15.90;79.57
60642;BME280;46837;52.446;-1.930;2023-07-24T00:18:09;99016.39;;;15.89;79.64
60642;BME280;46837;52.446;-1.930;2023-07-24T00:19:09;99013.48;;;15.91;79.47
60642;BME280;46837;52.446;-1.930;2023-07-24T00:20:09;99012.41;;;15.90;79.55
60642;BME280;46837;52.446;-1.930;2023-07-24T00:21:09;99012.64;;;15.90;79.49
60642;BME280;46837;52.446;-1.930;2023-07-24T00:22:09;99014.23;;;15.85;79.91
60642;BME280;46837;52.446;-1.930;2023-07-24T00:23:09;99008.00;;;15.83;79.94
60642;BME280;46837;52.446;-1.930;2023-07-24T00:24:09;99007.78;;;15.79;80.07
60642;BME280;46837;52.446;-1.930;2023-07-24T00:25:09;99006.52;;;15.84;80.07
60642;BME280;46837;52.446;-1.930;2023-07-24T00:26:09;99008.32;;;15.88;79.78
60642;BME280;46837;52.446;-1.930;2023-07-24T00:27:09;99004.46;;;15.81;79.93
60642;BME280;46837;52.446;-1.930;2023-07-24T00:28:09;99001.94;;;15.77;79.89
60642;BME280;46837;52.446;-1.930;2023-07-24T00:29:09;99002.27;;;15.74;79.88
60642;BME280;46837;52.446;-1.930;2023-07-24T00:30:09;98999.65;;;15.74;79.83
60642;BME280;46837;52.446;-1.930;2023-07-24T00:31:09;99000.85;;;15.69;80.07
60642;BME280;46837;52.446;-1.930;2023-07-24T00:32:09;98998.97;;;15.72;80.02
60642;BME280;46837;52.446;-1.930;2023-07-24T00:33:09;98998.68;;;15.67;79.86
60642;BME280;46837;52.446;-1.930;2023-07-24T00:34:09;99002.99;;;15.69;79.86
60642;BME280;46837;52.446;-1.930;2023-07-24T00:35:09;98999.05;;;15.71;79.74
60642;BME280;46837;52.446;-1.930;2023-07-24T00:36:09;99001.45;;;15.62;80.22
60642;BME280;46837;52.446;-1.930;2023-07-24T00:37:09;98999.03;;;15.67;80.07
60642;BME280;46837;52.446;-1.930;2023-07-24T00:38:09;99004.14;;;15.69;80.07
60642;BME280;46837;52.446;-1.930;2023-07-24T00:39:09;99003.76;;;15.67;80.11
60642;BME280;46837;52.446;-1.930;2023-07-24T00:40:09;99004.98;;;15.69;80.00
60642;BME280;46837;52.446;-1.930;2023-07-24T00:41:09;99004.92;;;15.64;79.83
60642;BME280;46837;52.446;-1.930;2023-07-24T00:42:09;99000.86;;;15.62;79.84
60642;BME280;46837;52.446;-1.930;2023-07-24T00:43:09;99010.96;;;15.49;80.33
60642;BME280;46837;52.446;-1.930;2023-07-24T00:44:09;99002.82;;;15.46;80.32
60642;BME280;46837;52.446;-1.930;2023-07-24T00:45:09;99007.82;;;15.49;80.08
60642;BME280;46837;52.446;-1.930;2023-07-24T00:46:09;99008.59;;;15.53;79.78
60642;BME280;46837;52.446;-1.930;2023-07-24T00:47:09;99006.66;;;15.47;80.03
60642;BME280;46837;52.446;-1.930;2023-07-24T00:48:09;99004.95;;;15.47;79.88
60642;BME280;46837;52.446;-1.930;2023-07-24T00:49:09;99007.47;;;15.45;80.04
60642;BME280;46837;52.446;-1.930;2023-07-24T00:50:09;99005.84;;;15.47;80.14
60642;BME280;46837;52.446;-1.930;2023-07-24T00:51:09;99005.91;;;15.48;80.14
60642;BME280;46837;52.446;-1.930;2023-07-24T00:52:09;99007.37;;;15.50;79.96
60642;BME280;46837;52.446;-1.930;2023-07-24T00:53:10;99008.19;;;15.50;79.91
60642;BME280;46837;52.446;-1.930;2023-07-24T00:54:09;99008.89;;;15.50;79.93
60642;BME280;46837;52.446;-1.930;2023-07-24T00:55:09;99005.28;;;15.45;79.91
60642;BME280;46837;52.446;-1.930;2023-07-24T00:56:09;99008.04;;;15.46;79.88
60642;BME280;46837;52.446;-1.930;2023-07-24T00:57:09;99003.36;;;15.45;79.78
60642;BME280;46837;52.446;-1.930;2023-07-24T00:58:10;99004.37;;;15.41;79.79
60642;BME280;46837;52.446;-1.930;2023-07-24T00:59:09;99007.63;;;15.45;79.83
60642;BME280;46837;52.446;-1.930;2023-07-24T01:00:09;99003.40;;;15.50;79.62
60642;BME280;46837;52.446;-1.930;2023-07-24T01:01:09;99002.34;;;15.52;79.48
60642;BME280;46837;52.446;-1.930;2023-07-24T01:02:09;99001.35;;;15.47;79.38
60642;BME280;46837;52.446;-1.930;2023-07-24T01:03:09;99006.38;;;15.48;79.48
60642;BME280;46837;52.446;-1.930;2023-07-24T01:04:09;98997.89;;;15.45;79.35
60642;BME280;46837;52.446;-1.930;2023-07-24T01:05:09;98999.84;;;15.43;79.28
60642;BME280;46837;52.446;-1.930;2023-07-24T01:06:09;99000.20;;;15.43;79.26
60642;BME280;46837;52.446;-1.930;2023-07-24T01:07:09;98999.98;;;15.39;79.33
60642;BME280;46837;52.446;-1.930;2023-07-24T01:08:09;98998.76;;;15.37;79.27
60642;BME280;46837;52.446;-1.930;2023-07-24T01:09:09;99006.21;;;15.33;79.31
60642;BME280;46837;52.446;-1.930;2023-07-24T01:10:09;99001.27;;;15.27;79.46
60642;BME280;46837;52.446;-1.930;2023-07-24T01:11:18;99001.67;;;15.26;79.53
60642;BME280;46837;52.446;-1.930;2023-07-24T01:13:15;99005.06;;;15.25;79.59
60642;BME280;46837;52.446;-1.930;2023-07-24T01:15:22;99007.82;;;15.24;79.69
60642;BME280;46837;52.446;-1.930;2023-07-24T01:16:14;99003.02;;;15.19;79.78
60642;BME280;46837;52.446;-1.930;2023-07-24T01:17:09;99007.12;;;15.21;79.90
60642;BME280;46837;52.446;-1.930;2023-07-24T01:18:11;99000.59;;;15.19;79.84
60642;BME280;46837;52.446;-1.930;2023-07-24T01:20:12;99003.95;;;15.19;79.95
60642;BME280;46837;52.446;-1.930;2023-07-24T01:21:09;99004.43;;;15.16;80.00
60642;BME280;46837;52.446;-1.930;2023-07-24T01:23:20;99000.89;;;15.15;80.15
60642;BME280;46837;52.446;-1.930;2023-07-24T01:24:21;99005.77;;;15.19;79.92
60642;BME280;46837;52.446;-1.930;2023-07-24T01:26:09;99001.81;;;15.12;80.05
60642;BME280;46837;52.446;-1.930;2023-07-24T01:27:09;99001.04;;;15.17;80.02
60642;BME280;46837;52.446;-1.930;2023-07-24T01:28:09;99001.09;;;15.13;80.10
60642;BME280;46837;52.446;-1.930;2023-07-24T01:29:09;99003.80;;;15.13;80.06
60642;BME280;46837;52.446;-1.930;2023-07-24T01:30:09;98999.09;;;15.09;80.21
60642;BME280;46837;52.446;-1.930;2023-07-24T01:31:09;98998.26;;;15.09;80.07
60642;BME280;46837;52.446;-1.930;2023-07-24T01:32:09;99002.73;;;15.08;80.25
60642;BME280;46837;52.446;-1.930;2023-07-24T01:33:09;99003.66;;;15.11;80.25
60642;BME280;46837;52.446;-1.930;2023-07-24T01:34:09;99000.09;;;15.13;80.07
60642;BME280;46837;52.446;-1.930;2023-07-24T01:35:09;99000.07;;;15.09;80.05
60642;BME280;46837;52.446;-1.930;2023-07-24T01:36:09;98996.28;;;15.11;79.98
60642;BME280;46837;52.446;-1.930;2023-07-24T01:37:09;99001.58;;;15.13;79.91
60642;BME280;46837;52.446;-1.930;2023-07-24T01:38:09;99002.56;;;15.08;80.02
60642;BME280;46837;52.446;-1.930;2023-07-24T01:39:09;98999.29;;;15.10;79.98
60642;BME280;46837;52.446;-1.930;2023-07-24T01:40:09;98999.55;;;15.14;79.81
60642;BME280;46837;52.446;-1.930;2023-07-24T01:41:09;98999.86;;;15.17;79.67
60642;BME280;46837;52.446;-1.930;2023-07-24T01:42:09;98995.84;;;15.11;79.55
60642;BME280;46837;52.446;-1.930;2023-07-24T01:43:09;98996.32;;;15.12;79.69
60642;BME280;46837;52.446;-1.930;2023-07-24T01:44:09;99000.34;;;15.12;79.63
60642;BME280;46837;52.446;-1.930;2023-07-24T01:45:09;98999.47;;;15.06;79.74
60642;BME280;46837;52.446;-1.930;2023-07-24T01:46:09;98997.96;;;15.09;79.78
60642;BME280;46837;52.446;-1.930;2023-07-24T01:47:09;98996.52;;;15.01;79.83
60642;BME280;46837;52.446;-1.930;2023-07-24T01:48:09;98997.93;;;14.99;79.98
60642;BME280;46837;52.446;-1.930;2023-07-24T01:49:09;99002.85;;;14.95;80.04
60642;BME280;46837;52.446;-1.930;2023-07-24T01:50:09;99001.61;;;14.94;79.98
60642;BME280;46837;52.446;-1.930;2023-07-24T01:51:09;99003.86;;;14.87;80.07
60642;BME280;46837;52.446;-1.930;2023-07-24T01:52:09;99005.26;;;14.86;80.31
60642;BME280;46837;52.446;-1.930;2023-07-24T01:53:09;99004.81;;;14.83;80.35
60642;BME280;46837;52.446;-1.930;2023-07-24T01:54:09;99007.34;;;14.87;80.27
60642;BME280;46837;52.446;-1.930;2023-07-24T01:55:09;99009.50;;;14.89;80.09
60642;BME280;46837;52.446;-1.930;2023-07-24T01:56:09;99010.75;;;14.87;80.17
60642;BME280;46837;52.446;-1.930;2023-07-24T01:57:09;99006.52;;;14.87;80.20
60642;BME280;46837;52.446;-1.930;2023-07-24T01:58:09;99010.52;;;14.87;80.13
60642;BME280;46837;52.446;-1.930;2023-07-24T01:59:09;99006.68;;;14.80;80.26
60642;BME280;46837;52.446;-1.930;2023-07-24T02:00:09;99006.46;;;14.85;80.17
60642;BME280;46837;52.446;-1.930;2023-07-24T02:01:09;99007.71;;;14.87;80.00
60642;BME280;46837;52.446;-1.930;2023-07-24T02:02:09;99008.08;;;14.89;79.99
60642;BME280;46837;52.446;-1.930;2023-07-24T02:03:09;99005.32;;;14.86;79.95
60642;BME280;46837;52.446;-1.930;2023-07-24T02:04:09;99012.73;;;14.85;80.10
60642;BME280;46837;52.446;-1.930;2023-07-24T02:05:09;99012.81;;;14.88;80.00
60642;BME280;46837;52.446;-1.930;2023-07-24T02:06:09;99003.29;;;14.79;80.11
60642;BME280;46837;52.446;-1.930;2023-07-24T02:07:09;99008.11;;;14.73;80.09
60642;BME280;46837;52.446;-1.930;2023-07-24T02:08:09;99005.30;;;14.75;80.18
60642;BME280;46837;52.446;-1.930;2023-07-24T02:09:09;99009.16;;;14.73;80.13
60642;BME280;46837;52.446;-1.930;2023-07-24T02:10:09;99002.99;;;14.71;80.12
60642;BME280;46837;52.446;-1.930;2023-07-24T02:11:09;99004.29;;;14.66;80.16
60642;BME280;46837;52.446;-1.930;2023-07-24T02:12:09;99000.08;;;14.68;80.17
60642;BME280;46837;52.446;-1.930;2023-07-24T02:13:10;99004.20;;;14.70;80.03
60642;BME280;46837;52.446;-1.930;2023-07-24T02:14:09;99008.50;;;14.61;80.09
60642;BME280;46837;52.446;-1.930;2023-07-24T02:15:09;99008.67;;;14.63;80.24
60642;BME280;46837;52.446;-1.930;2023-07-24T02:16:09;99013.47;;;14.57;80.33
60642;BME280;46837;52.446;-1.930;2023-07-24T02:17:09;99010.20;;;14.56;80.44
60642;BME280;46837;52.446;-1.930;2023-07-24T02:18:09;99011.68;;;14.58;80.33
60642;BME280;46837;52.446;-1.930;2023-07-24T02:19:09;99013.73;;;14.56;80.26
60642;BME280;46837;52.446;-1.930;2023-07-24T02:20:09;99009.85;;;14.53;80.44
60642;BME280;46837;52.446;-1.930;2023-07-24T02:21:09;99010.82;;;14.50;80.58
60642;BME280;46837;52.446;-1.930;2023-07-24T02:22:09;99005.00;;;14.40;80.93
60642;BME280;46837;52.446;-1.930;2023-07-24T02:23:09;99006.02;;;14.46;80.91
60642;BME280;46837;52.446;-1.930;2023-07-24T02:24:09;99003.33;;;14.48;80.61
60642;BME280;46837;52.446;-1.930;2023-07-24T02:25:09;99006.30;;;14.51;80.57
60642;BME280;46837;52.446;-1.930;2023-07-24T02:26:09;98998.12;;;14.54;80.54
60642;BME280;46837;52.446;-1.930;2023-07-24T02:27:11;99012.34;;;14.51;80.57
60642;BME280;46837;52.446;-1.930;2023-07-24T02:28:09;99003.58;;;14.42;80.93
60642;BME280;46837;52.446;-1.930;2023-07-24T02:29:09;98998.59;;;14.38;80.96
60642;BME280;46837;52.446;-1.930;2023-07-24T02:30:09;99001.44;;;14.35;81.08
60642;BME280;46837;52.446;-1.930;2023-07-24T02:31:09;98997.89;;;14.39;80.97
60642;BME280;46837;52.446;-1.930;2023-07-24T02:32:09;99003.00;;;14.41;80.94
60642;BME280;46837;52.446;-1.930;2023-07-24T02:33:09;98999.62;;;14.37;81.18
60642;BME280;46837;52.446;-1.930;2023-07-24T02:34:09;99002.63;;;14.33;81.13
60642;BME280;46837;52.446;-1.930;2023-07-24T02:35:09;98998.58;;;14.28;81.48
60642;BME280;46837;52.446;-1.930;2023-07-24T02:36:09;98997.01;;;14.34;81.14
60642;BME280;46837;52.446;-1.930;2023-07-24T02:37:09;98999.98;;;14.38;81.03
60642;BME280;46837;52.446;-1.930;2023-07-24T02:38:09;98998.30;;;14.33;81.33
60642;BME280;46837;52.446;-1.930;2023-07-24T02:39:09;98999.27;;;14.37;81.12
60642;BME280;46837;52.446;-1.930;2023-07-24T02:40:09;98997.72;;;14.39;80.97
60642;BME280;46837;52.446;-1.930;2023-07-24T02:41:09;99004.26;;;14.34;81.08
60642;BME280;46837;52.446;-1.930;2023-07-24T02:42:09;98999.21;;;14.30;81.32
60642;BME280;46837;52.446;-1.930;2023-07-24T02:43:09;98998.16;;;14.31;81.17
60642;BME280;46837;52.446;-1.930;2023-07-24T02:44:09;98997.83;;;14.29;81.16
60642;BME280;46837;52.446;-1.930;2023-07-24T02:45:09;98998.35;;;14.28;81.13
60642;BME280;46837;52.446;-1.930;2023-07-24T02:46:09;99003.15;;;14.29;81.14
60642;BME280;46837;52.446;-1.930;2023-07-24T02:47:09;98995.05;;;14.26;81.20
60642;BME280;46837;52.446;-1.930;2023-07-24T02:48:09;98995.69;;;14.25;81.31
60642;BME280;46837;52.446;-1.930;2023-07-24T02:49:09;98994.31;;;14.25;81.34
60642;BME280;46837;52.446;-1.930;2023-07-24T02:50:09;98997.88;;;14.28;81.34
60642;BME280;46837;52.446;-1.930;2023-07-24T02:51:09;98997.09;;;14.30;81.28
60642;BME280;46837;52.446;-1.930;2023-07-24T02:52:09;99003.97;;;14.33;81.24
60642;BME280;46837;52.446;-1.930;2023-07-24T02:53:09;98999.59;;;14.24;81.73
60642;BME280;46837;52.446;-1.930;2023-07-24T02:54:09;98995.94;;;14.28;81.43
60642;BME280;46837;52.446;-1.930;2023-07-24T02:55:09;99004.18;;;14.28;81.45
60642;BME280;46837;52.446;-1.930;2023-07-24T02:56:09;99000.00;;;14.25;81.51
60642;BME280;46837;52.446;-1.930;2023-07-24T02:57:09;99003.71;;;14.31;81.28
60642;BME280;46837;52.446;-1.930;2023-07-24T02:58:10;99003.64;;;14.31;81.19
60642;BME280;46837;52.446;-1.930;2023-07-24T02:59:09;99001.12;;;14.32;81.13
60642;BME280;46837;52.446;-1.930;2023-07-24T03:00:09;99001.19;;;14.34;81.14
60642;BME280;46837;52.446;-1.930;2023-07-24T03:01:09;99004.16;;;14.32;81.25
60642;BME280;46837;52.446;-1.930;2023-07-24T03:02:09;99003.20;;;14.28;81.32
60642;BME280;46837;52.446;-1.930;2023-07-24T03:03:09;99000.78;;;14.31;81.27
60642;BME280;46837;52.446;-1.930;2023-07-24T03:04:09;99005.19;;;14.31;81.17
60642;BME280;46837;52.446;-1.930;2023-07-24T03:05:09;99000.41;;;14.31;81.09
60642;BME280;46837;52.446;-1.930;2023-07-24T03:06:09;98999.84;;;14.28;81.09
60642;BME280;46837;52.446;-1.930;2023-07-24T03:07:09;99001.48;;;14.28;81.23
60642;BME280;46837;52.446;-1.930;2023-07-24T03:08:09;99003.29;;;14.26;81.35
60642;BME280;46837;52.446;-1.930;2023-07-24T03:09:09;99008.20;;;14.24;81.35
60642;BME280;46837;52.446;-1.930;2023-07-24T03:10:09;99009.29;;;14.25;81.35
60642;BME280;46837;52.446;-1.930;2023-07-24T03:11:09;99008.86;;;14.19;81.33
60642;BME280;46837;52.446;-1.930;2023-07-24T03:12:09;99010.11;;;14.19;81.46
60642;BME280;46837;52.446;-1.930;2023-07-24T03:13:09;99009.73;;;14.18;81.39
60642;BME280;46837;52.446;-1.930;2023-07-24T03:14:09;99008.14;;;14.17;81.38
60642;BME280;46837;52.446;-1.930;2023-07-24T03:15:09;99008.92;;;14.20;81.31
60642;BME280;46837;52.446;-1.930;2023-07-24T03:16:09;99010.22;;;14.25;81.27
60642;BME280;46837;52.446;-1.930;2023-07-24T03:17:09;99010.92;;;14.27;81.08
60642;BME280;46837;52.446;-1.930;2023-07-24T03:18:09;99009.95;;;14.26;81.26
60642;BME280;46837;52.446;-1.930;2023-07-24T03:19:09;99013.45;;;14.27;81.26
60642;BME280;46837;52.446;-1.930;2023-07-24T03:20:16;99011.47;;;14.23;81.20
60642;BME280;46837;52.446;-1.930;2023-07-24T03:21:09;99014.98;;;14.24;81.28
60642;BME280;46837;52.446;-1.930;2023-07-24T03:22:09;99010.96;;;14.29;81.08
60642;BME280;46837;52.446;-1.930;2023-07-24T03:23:09;99012.40;;;14.30;81.06
60642;BME280;46837;52.446;-1.930;2023-07-24T03:24:09;99017.87;;;14.15;81.58
60642;BME280;46837;52.446;-1.930;2023-07-24T03:25:09;99014.95;;;14.19;81.54
60642;BME280;46837;52.446;-1.930;2023-07-24T03:26:09;99016.61;;;14.21;81.35
60642;BME280;46837;52.446;-1.930;2023-07-24T03:27:09;99019.88;;;14.23;81.31
60642;BME280;46837;52.446;-1.930;2023-07-24T03:28:09;99017.80;;;14.25;81.34
60642;BME280;46837;52.446;-1.930;2023-07-24T03:29:09;99018.96;;;14.28;81.28
60642;BME280;46837;52.446;-1.930;2023-07-24T03:30:09;99021.82;;;14.30;81.14
60642;BME280;46837;52.446;-1.930;2023-07-24T03:31:09;99023.80;;;14.26;81.15
60642;BME280;46837;52.446;-1.930;2023-07-24T03:32:09;99017.94;;;14.29;81.18
60642;BME280;46837;52.446;-1.930;2023-07-24T03:33:09;99023.95;;;14.30;81.13
60642;BME280;46837;52.446;-1.930;2023-07-24T03:34:09;99022.17;;;14.29;80.98
60642;BME280;46837;52.446;-1.930;2023-07-24T03:35:09;99024.48;;;14.24;81.12
60642;BME280;46837;52.446;-1.930;2023-07-24T03:36:09;99029.54;;;14.20;81.20
60642;BME280;46837;52.446;-1.930;2023-07-24T03:37:09;99023.94;;;14.16;81.47
60642;BME280;46837;52.446;-1.930;2023-07-24T03:38:09;99026.86;;;14.12;81.47
60642;BME280;46837;52.446;-1.930;2023-07-24T03:39:09;99024.30;;;14.11;81.54
60642;BME280;46837;52.446;-1.930;2023-07-24T03:40:09;99029.92;;;14.09;81.50
60642;BME280;46837;52.446;-1.930;2023-07-24T03:41:09;99030.05;;;14.12;81.43
60642;BME280;46837;52.446;-1.930;2023-07-24T03:42:10;99032.01;;;14.13;81.43
60642;BME280;46837;52.446;-1.930;2023-07-24T03:43:09;99030.84;;;14.15;81.49
60642;BME280;46837;52.446;-1.930;2023-07-24T03:44:09;99032.09;;;14.10;81.75
60642;BME280;46837;52.446;-1.930;2023-07-24T03:45:09;99034.19;;;14.09;81.86
60642;BME280;46837;52.446;-1.930;2023-07-24T03:46:09;99036.42;;;14.11;81.74
60642;BME280;46837;52.446;-1.930;2023-07-24T03:47:09;99034.77;;;14.07;82.11
60642;BME280;46837;52.446;-1.930;2023-07-24T03:48:09;99034.12;;;14.04;82.30
60642;BME280;46837;52.446;-1.930;2023-07-24T03:49:09;99030.94;;;14.02;82.39
60642;BME280;46837;52.446;-1.930;2023-07-24T03:50:09;99036.19;;;13.99;82.94
60642;BME280;46837;52.446;-1.930;2023-07-24T03:51:09;99041.12;;;14.02;82.89
60642;BME280;46837;52.446;-1.930;2023-07-24T03:52:09;99039.39;;;14.01;82.96
60642;BME280;46837;52.446;-1.930;2023-07-24T03:53:09;99038.70;;;13.94;83.23
60642;BME280;46837;52.446;-1.930;2023-07-24T03:54:09;99040.01;;;13.91;83.33
60642;BME280;46837;52.446;-1.930;2023-07-24T03:55:09;99039.55;;;13.91;83.86
60642;BME280;46837;52.446;-1.930;2023-07-24T03:56:09;99048.47;;;13.89;84.01
60642;BME280;46837;52.446;-1.930;2023-07-24T03:57:09;99045.12;;;13.77;84.46
60642;BME280;46837;52.446;-1.930;2023-07-24T03:58:09;99042.69;;;13.69;84.45
60642;BME280;46837;52.446;-1.930;2023-07-24T03:59:09;99045.49;;;13.64;85.00
60642;BME280;46837;52.446;-1.930;2023-07-24T04:00:09;99048.23;;;13.65;85.28
60642;BME280;46837;52.446;-1.930;2023-07-24T04:01:09;99048.27;;;13.69;85.52
60642;BME280;46837;52.446;-1.930;2023-07-24T04:02:09;99053.93;;;13.70;85.42
60642;BME280;46837;52.446;-1.930;2023-07-24T04:03:09;99050.04;;;13.70;85.21
60642;BME280;46837;52.446;-1.930;2023-07-24T04:04:09;99055.76;;;13.68;84.96
60642;BME280;46837;52.446;-1.930;2023-07-24T04:05:09;99050.43;;;13.68;85.15
60642;BME280;46837;52.446;-1.930;2023-07-24T04:06:09;99053.53;;;13.72;85.39
60642;BME280;46837;52.446;-1.930;2023-07-24T04:07:09;99056.20;;;13.73;85.35
60642;BME280;46837;52.446;-1.930;2023-07-24T04:08:09;99052.48;;;13.67;85.53
60642;BME280;46837;52.446;-1.930;2023-07-24T04:09:09;99056.81;;;13.69;85.77
60642;BME280;46837;52.446;-1.930;2023-07-24T04:10:09;99055.15;;;13.65;85.47
60642;BME280;46837;52.446;-1.930;2023-07-24T04:11:09;99050.04;;;13.64;85.75
60642;BME280;46837;52.446;-1.930;2023-07-24T04:12:09;99055.14;;;13.60;85.93
60642;BME280;46837;52.446;-1.930;2023-07-24T04:13:09;99059.93;;;13.64;86.00
60642;BME280;46837;52.446;-1.930;2023-07-24T04:14:09;99055.02;;;13.62;86.06
60642;BME280;46837;52.446;-1.930;2023-07-24T04:15:09;99064.03;;;13.60;86.00
60642;BME280;46837;52.446;-1.930;2023-07-24T04:16:09;99064.34;;;13.61;86.01
60642;BME280;46837;52.446;-1.930;2023-07-24T04:17:09;99062.44;;;13.60;85.94
60642;BME280;46837;52.446;-1.930;2023-07-24T04:18:09;99063.70;;;13.56;86.17
60642;BME280;46837;52.446;-1.930;2023-07-24T04:19:09;99065.09;;;13.53;86.47
60642;BME280;46837;52.446;-1.930;2023-07-24T04:20:09;99065.83;;;13.51;86.29
60642;BME280;46837;52.446;-1.930;2023-07-24T04:21:09;99065.38;;;13.48;86.37
60642;BME280;46837;52.446;-1.930;2023-07-24T04:22:09;99066.23;;;13.44;86.78
60642;BME280;46837;52.446;-1.930;2023-07-24T04:23:09;99064.96;;;13.40;86.65
60642;BME280;46837;52.446;-1.930;2023-07-24T04:24:09;99065.44;;;13.38;86.83
60642;BME280;46837;52.446;-1.930;2023-07-24T04:25:09;99067.99;;;13.35;86.99
60642;BME280;46837;52.446;-1.930;2023-07-24T04:26:09;99071.66;;;13.31;87.42
60642;BME280;46837;52.446;-1.930;2023-07-24T04:27:09;99068.96;;;13.31;87.19
60642;BME280;46837;52.446;-1.930;2023-07-24T04:28:09;99068.38;;;13.33;87.53
60642;BME280;46837;52.446;-1.930;2023-07-24T04:29:09;99071.96;;;13.34;87.36
60642;BME280;46837;52.446;-1.930;2023-07-24T04:30:09;99074.74;;;13.30;87.24
60642;BME280;46837;52.446;-1.930;2023-07-24T04:31:09;99079.75;;;13.26;87.58
60642;BME280;46837;52.446;-1.930;2023-07-24T04:32:09;99076.59;;;13.25;87.32
60642;BME280;46837;52.446;-1.930;2023-07-24T04:33:09;99079.31;;;13.26;87.31
60642;BME280;46837;52.446;-1.930;2023-07-24T04:34:09;99081.35;;;13.27;87.48
60642;BME280;46837;52.446;-1.930;2023-07-24T04:35:09;99081.68;;;13.22;87.64
60642;BME280;46837;52.446;-1.930;2023-07-24T04:36:09;99085.28;;;13.24;87.82
60642;BME280;46837;52.446;-1.930;2023-07-24T04:37:09;99088.89;;;13.24;87.42
60642;BME280;46837;52.446;-1.930;2023-07-24T04:38:09;99083.09;;;13.20;87.74
60642;BME280;46837;52.446;-1.930;2023-07-24T04:39:09;99088.07;;;13.21;87.61
60642;BME280;46837;52.446;-1.930;2023-07-24T04:40:09;99086.26;;;13.21;87.79
60642;BME280;46837;52.446;-1.930;2023-07-24T04:41:09;99089.69;;;13.22;87.98
60642;BME280;46837;52.446;-1.930;2023-07-24T04:42:09;99093.57;;;13.18;87.88
60642;BME280;46837;52.446;-1.930;2023-07-24T04:43:09;99090.88;;;13.12;88.05
60642;BME280;46837;52.446;-1.930;2023-07-24T04:44:09;99091.99;;;13.13;88.29
60642;BME280;46837;52.446;-1.930;2023-07-24T04:45:09;99099.24;;;13.10;88.35
60642;BME280;46837;52.446;-1.930;2023-07-24T04:46:09;99094.29;;;13.07;88.53
60642;BME280;46837;52.446;-1.930;2023-07-24T04:47:09;99094.87;;;13.08;88.38
60642;BME280;46837;52.446;-1.930;2023-07-24T04:48:09;99094.61;;;13.05;88.84
60642;BME280;46837;52.446;-1.930;2023-07-24T04:49:09;99100.45;;;13.02;89.23
60642;BME280;46837;52.446;-1.930;2023-07-24T04:50:09;99096.45;;;13.01;89.29
60642;BME280;46837;52.446;-1.930;2023-07-24T04:51:09;99101.96;;;13.00;88.94
60642;BME280;46837;52.446;-1.930;2023-07-24T04:52:09;99100.01;;;13.02;88.97
60642;BME280;46837;52.446;-1.930;2023-07-24T04:53:09;99100.43;;;13.00;89.14
60642;BME280;46837;52.446;-1.930;2023-07-24T04:54:09;99107.41;;;12.99;89.58
60642;BME280;46837;52.446;-1.930;2023-07-24T04:55:09;99106.46;;;12.98;89.18
60642;BME280;46837;52.446;-1.930;2023-07-24T04:56:09;99107.50;;;12.93;89.28
60642;BME280;46837;52.446;-1.930;2023-07-24T04:57:09;99105.91;;;12.95;89.61
60642;BME280;46837;52.446;-1.930;2023-07-24T04:58:09;99108.20;;;12.96;89.80
60642;BME280;46837;52.446;-1.930;2023-07-24T04:59:09;99108.12;;;12.97;89.45
60642;BME280;46837;52.446;-1.930;2023-07-24T05:00:09;99108.83;;;12.99;89.66
60642;BME280;46837;52.446;-1.930;2023-07-24T05:01:09;99108.41;;;12.97;89.69
60642;BME280;46837;52.446;-1.930;2023-07-24T05:02:09;99110.59;;;12.97;89.61
60642;BME280;46837;52.446;-1.930;2023-07-24T05:03:09;99109.25;;;13.00;89.58
60642;BME280;46837;52.446;-1.930;2023-07-24T05:04:09;99110.92;;;12.97;89.66
60642;BME280;46837;52.446;-1.930;2023-07-24T05:05:09;99118.39;;;12.96;89.82
60642;BME280;46837;52.446;-1.930;2023-07-24T05:06:09;99118.21;;;12.93;89.75
60642;BME280;46837;52.446;-1.930;2023-07-24T05:07:09;99120.85;;;12.92;89.56
60642;BME280;46837;52.446;-1.930;2023-07-24T05:08:09;99120.45;;;12.85;89.71
60642;BME280;46837;52.446;-1.930;2023-07-24T05:09:09;99123.73;;;12.88;89.93
60642;BME280;46837;52.446;-1.930;2023-07-24T05:10:09;99126.87;;;12.90;90.00
60642;BME280;46837;52.446;-1.930;2023-07-24T05:11:09;99125.43;;;12.91;89.85
60642;BME280;46837;52.446;-1.930;2023-07-24T05:12:09;99125.38;;;12.95;89.84
60642;BME280;46837;52.446;-1.930;2023-07-24T05:13:09;99125.31;;;12.94;89.74
60642;BME280;46837;52.446;-1.930;2023-07-24T05:14:09;99127.39;;;12.94;89.98
60642;BME280;46837;52.446;-1.930;2023-07-24T05:15:09;99127.30;;;12.98;90.02
60642;BME280;46837;52.446;-1.930;2023-07-24T05:16:09;99127.04;;;12.99;90.02
60642;BME280;46837;52.446;-1.930;2023-07-24T05:17:09;99129.04;;;13.01;89.70
60642;BME280;46837;52.446;-1.930;2023-07-24T05:18:09;99124.02;;;12.97;89.56